Andelst, Netherlands
Current Conditions -  °F | °C
As of 2:25 AM on Tuesday 25 Nov 2014 (Local Time) from EHDL Reporting Station
Haze Haze  
Wind Chill: 30°   Ceiling: Unl
Heat Index: 30°   Visibility: 2.3mi
Dew Point: 30°   Wind: 1mph
Humidity: 100%   Direction: 100°E
Pressure: 30.33"   Gusts: NA
Location:  51.91°N, 5.73°E
Report Text: EHDL 250125Z AUTO 10001KT 3800 BR FEW110 M01/M01 Q1027 GRN
Loading
Personal Weather Stations






























Interactive Weather Map New forecast layout! Learn more

10-Day Weather Forecast

Advertisements
Track Severe Weather on mobile